createdAt,value
2016-10-23T00:00:05.571Z,25.14
2016-10-23T00:01:05.632Z,25.1
2016-10-23T00:02:05.948Z,25.09
2016-10-23T00:03:05.643Z,25.2
2016-10-23T00:04:05.935Z,25.17
2016-10-23T00:05:05.657Z,25.21
2016-10-23T00:06:05.961Z,25.15
2016-10-23T00:07:05.620Z,25.15
2016-10-23T00:08:05.320Z,25.18
2016-10-23T00:09:05.956Z,25.2
2016-10-23T00:10:05.326Z,25.18
2016-10-23T00:11:06.316Z,25.18
2016-10-23T00:12:05.652Z,25.17
2016-10-23T00:13:05.350Z,25.17
2016-10-23T00:14:05.667Z,25.21
2016-10-23T00:15:05.781Z,25.18
2016-10-23T00:16:05.680Z,25.17
2016-10-23T00:17:05.695Z,25.2
2016-10-23T00:18:05.432Z,25.15
2016-10-23T00:19:05.700Z,25.15
2016-10-23T00:20:05.751Z,25.18
2016-10-23T00:21:05.816Z,25.18
2016-10-23T00:22:06.337Z,25.14
2016-10-23T00:23:05.745Z,25.21
2016-10-23T00:24:05.790Z,25.23
2016-10-23T00:25:06.058Z,25.2
2016-10-23T00:26:05.739Z,25.25
2016-10-23T00:27:05.809Z,25.27
2016-10-23T00:28:05.764Z,25.23
2016-10-23T00:29:05.778Z,25.24
2016-10-23T00:30:05.780Z,25.14
2016-10-23T00:31:06.103Z,25.24
2016-10-23T00:32:05.793Z,25.21
2016-10-23T00:33:05.940Z,25.23
2016-10-23T00:34:05.850Z,25.21
2016-10-23T00:35:05.874Z,25.28
2016-10-23T00:36:05.921Z,25.33
2016-10-23T00:37:05.880Z,25.27
2016-10-23T00:38:05.885Z,25.25
2016-10-23T00:39:05.891Z,25.28
2016-10-23T00:40:05.947Z,25.2
2016-10-23T00:41:06.171Z,25.2
2016-10-23T00:42:06.177Z,25.3
2016-10-23T00:43:06.180Z,25.21
2016-10-23T00:44:06.186Z,25.25
2016-10-23T00:45:06.034Z,25.27
2016-10-23T00:46:05.894Z,25.24
2016-10-23T00:47:05.887Z,25.23
2016-10-23T00:48:06.216Z,25.27
2016-10-23T00:49:05.595Z,25.25
2016-10-23T00:50:06.282Z,25.18
2016-10-23T00:51:06.240Z,25.27
2016-10-23T00:52:05.933Z,25.25
2016-10-23T00:53:05.940Z,25.25
2016-10-23T00:54:06.307Z,25.27
2016-10-23T00:55:05.689Z,25.25
2016-10-23T00:56:05.969Z,25.32
2016-10-23T00:57:05.967Z,25.21
2016-10-23T00:58:06.291Z,25.23
2016-10-23T00:59:05.984Z,25.28
2016-10-23T01:00:06.141Z,25.2
2016-10-23T01:01:06.310Z,25.24
2016-10-23T01:02:06.002Z,25.23
2016-10-23T01:03:06.043Z,25.32
2016-10-23T01:04:06.328Z,25.24
2016-10-23T01:05:06.080Z,25.24
2016-10-23T01:06:06.451Z,25.35
2016-10-23T01:07:06.084Z,25.23
2016-10-23T01:08:05.728Z,25.36
2016-10-23T01:09:06.398Z,25.4
2016-10-23T01:10:06.371Z,25.33
2016-10-23T01:11:05.803Z,25.39
2016-10-23T01:12:06.385Z,25.39
2016-10-23T01:13:06.438Z,25.32
2016-10-23T01:14:06.084Z,25.38
2016-10-23T01:15:06.095Z,25.43
2016-10-23T01:16:05.889Z,25.38
2016-10-23T01:17:06.419Z,25.4
2016-10-23T01:18:06.147Z,25.39
2016-10-23T01:19:06.479Z,25.38
2016-10-23T01:20:06.440Z,25.51
2016-10-23T01:21:06.185Z,25.46
2016-10-23T01:22:06.187Z,25.5
2016-10-23T01:23:06.247Z,25.47
2016-10-23T01:24:05.890Z,25.52
2016-10-23T01:25:05.895Z,25.51
2016-10-23T01:26:06.215Z,25.51
2016-10-23T01:27:05.912Z,25.58
2016-10-23T01:28:06.496Z,25.55
2016-10-23T01:29:06.512Z,25.61
2016-10-23T01:30:05.936Z,25.73
2016-10-23T01:31:06.567Z,25.65
2016-10-23T01:32:06.209Z,25.69
2016-10-23T01:33:06.525Z,25.65
2016-10-23T01:34:05.914Z,25.64
2016-10-23T01:35:06.541Z,25.62
2016-10-23T01:36:06.555Z,25.67
2016-10-23T01:37:05.983Z,25.7
2016-10-23T01:38:06.616Z,25.55
2016-10-23T01:39:06.255Z,25.55
2016-10-23T01:40:06.265Z,25.69
2016-10-23T01:41:06.323Z,25.72
2016-10-23T01:42:06.278Z,25.69
2016-10-23T01:43:06.286Z,25.7
2016-10-23T01:44:06.342Z,25.7
2016-10-23T01:45:06.039Z,25.57
2016-10-23T01:46:06.307Z,25.64
2016-10-23T01:47:06.315Z,25.58
2016-10-23T01:48:06.060Z,25.62
2016-10-23T01:49:06.332Z,25.67
2016-10-23T01:50:06.333Z,25.73
2016-10-23T01:51:06.353Z,25.67
2016-10-23T01:52:06.347Z,25.7
2016-10-23T01:53:06.673Z,25.7
2016-10-23T01:54:06.414Z,25.7
2016-10-23T01:55:06.370Z,25.69
2016-10-23T01:56:06.740Z,25.7
2016-10-23T01:57:06.748Z,25.67
2016-10-23T01:58:06.443Z,25.7
2016-10-23T01:59:06.091Z,25.64
2016-10-23T02:00:06.462Z,25.64
2016-10-23T02:01:06.156Z,25.58
2016-10-23T02:02:06.732Z,25.65
2016-10-23T02:03:06.116Z,25.67
2016-10-23T02:04:06.437Z,25.67
2016-10-23T02:05:06.439Z,25.61
2016-10-23T02:06:06.448Z,25.72
2016-10-23T02:07:06.870Z,25.67
2016-10-23T02:08:06.463Z,25.67
2016-10-23T02:09:06.833Z,25.62
2016-10-23T02:10:06.215Z,25.69
2016-10-23T02:11:06.222Z,25.72
2016-10-23T02:12:06.225Z,25.73
2016-10-23T02:13:06.500Z,25.79
2016-10-23T02:14:06.866Z,25.75
2016-10-23T02:15:06.875Z,25.76
2016-10-23T02:16:06.257Z,25.79
2016-10-23T02:17:06.837Z,25.73
2016-10-23T02:18:06.221Z,25.75
2016-10-23T02:19:06.538Z,25.73
2016-10-23T02:20:06.862Z,25.76
2016-10-23T02:21:07.004Z,25.85
2016-10-23T02:22:06.248Z,25.73
2016-10-23T02:23:06.599Z,25.9
2016-10-23T02:24:06.629Z,25.82
2016-10-23T02:25:06.318Z,25.9
2016-10-23T02:26:07.002Z,25.88
2016-10-23T02:27:06.597Z,25.88
2016-10-23T02:28:06.293Z,25.79
2016-10-23T02:29:06.300Z,25.85
2016-10-23T02:30:06.308Z,25.85
2016-10-23T02:31:06.626Z,25.8
2016-10-23T02:32:06.367Z,25.79
2016-10-23T02:33:06.961Z,25.79
2016-10-23T02:34:06.682Z,25.76
2016-10-23T02:35:06.658Z,25.73
2016-10-23T02:36:06.662Z,25.77
2016-10-23T02:37:06.874Z,25.76
2016-10-23T02:38:06.727Z,25.75
2016-10-23T02:39:06.732Z,25.82
2016-10-23T02:40:06.772Z,25.79
2016-10-23T02:41:07.109Z,25.87
2016-10-23T02:42:06.797Z,25.79
2016-10-23T02:43:06.760Z,25.88
2016-10-23T02:44:07.041Z,25.83
2016-10-23T02:45:06.785Z,25.82
2016-10-23T02:46:06.738Z,25.83
2016-10-23T02:47:06.791Z,25.77
2016-10-23T02:48:07.086Z,25.83
2016-10-23T02:49:06.753Z,25.83
2016-10-23T02:50:06.813Z,25.87
2016-10-23T02:51:07.080Z,25.9
2016-10-23T02:52:06.777Z,25.91
2016-10-23T02:53:06.834Z,25.98
2016-10-23T02:54:06.549Z,25.88
2016-10-23T02:55:07.233Z,25.92
2016-10-23T02:56:06.582Z,26.01
2016-10-23T02:57:06.883Z,25.99
2016-10-23T02:58:06.554Z,25.94
2016-10-23T02:59:06.877Z,25.95
2016-10-23T03:00:07.148Z,26.02
2016-10-23T03:01:06.532Z,26.07
2016-10-23T03:02:07.210Z,25.97
2016-10-23T03:03:06.904Z,25.97
2016-10-23T03:04:06.604Z,26.07
2016-10-23T03:05:06.869Z,26.02
2016-10-23T03:06:07.192Z,26.07
2016-10-23T03:07:07.196Z,26.02
2016-10-23T03:08:07.253Z,26.01
2016-10-23T03:09:06.904Z,26.1
2016-10-23T03:10:07.267Z,25.99
2016-10-23T03:11:07.309Z,25.98
2016-10-23T03:12:07.019Z,26.13
2016-10-23T03:13:07.009Z,26.06
2016-10-23T03:14:06.673Z,26.1
2016-10-23T03:15:06.990Z,26.06
2016-10-23T03:16:07.264Z,26.07
2016-10-23T03:17:06.956Z,26.1
2016-10-23T03:18:07.274Z,26.09
2016-10-23T03:19:06.656Z,26.13
2016-10-23T03:20:07.341Z,26.09
2016-10-23T03:21:07.031Z,26.09
2016-10-23T03:22:06.681Z,26.09
2016-10-23T03:23:06.998Z,26.07
2016-10-23T03:24:07.053Z,26.09
2016-10-23T03:25:07.069Z,26.1
2016-10-23T03:26:07.153Z,26.07
2016-10-23T03:27:07.436Z,26.15
2016-10-23T03:28:07.133Z,26.17
2016-10-23T03:29:07.040Z,26.07
2016-10-23T03:30:07.659Z,26.01
2016-10-23T03:31:07.156Z,26.13
2016-10-23T03:32:06.798Z,26.07
2016-10-23T03:33:07.072Z,26.07
2016-10-23T03:34:07.076Z,26.15
2016-10-23T03:35:07.397Z,26.02
2016-10-23T03:36:07.140Z,26.02
2016-10-23T03:37:07.099Z,26.09
2016-10-23T03:38:07.422Z,26.12
2016-10-23T03:39:07.432Z,26.1
2016-10-23T03:40:07.131Z,26.12
2016-10-23T03:41:07.280Z,26.12
2016-10-23T03:42:07.254Z,26.1
2016-10-23T03:43:06.831Z,26.12
2016-10-23T03:44:07.512Z,26.07
2016-10-23T03:45:07.603Z,26.15
2016-10-23T03:46:06.951Z,26.02
2016-10-23T03:47:07.534Z,26.12
2016-10-23T03:48:07.566Z,26.13
2016-10-23T03:49:07.231Z,26.01
2016-10-23T03:50:07.241Z,26.09
2016-10-23T03:51:07.513Z,26.07
2016-10-23T03:52:07.573Z,26.09
2016-10-23T03:53:07.526Z,26.13
2016-10-23T03:54:07.267Z,26.13
2016-10-23T03:55:07.593Z,26.13
2016-10-23T03:56:07.287Z,26.09
2016-10-23T03:57:07.654Z,26.17
2016-10-23T03:58:07.611Z,26.07
2016-10-23T03:59:07.621Z,26.09
2016-10-23T04:00:07.624Z,26.09
2016-10-23T04:01:07.322Z,26.13
2016-10-23T04:02:07.591Z,26.1
2016-10-23T04:03:07.338Z,26.1
2016-10-23T04:04:07.602Z,26.2
2016-10-23T04:05:07.609Z,26.17
2016-10-23T04:06:06.993Z,26.15
2016-10-23T04:07:07.152Z,26.12
2016-10-23T04:08:07.639Z,26.12
2016-10-23T04:09:07.689Z,26.07
2016-10-23T04:10:07.750Z,26.13
2016-10-23T04:11:07.657Z,26.21
2016-10-23T04:12:07.447Z,26.12
2016-10-23T04:13:07.668Z,26.15
2016-10-23T04:14:07.051Z,26.12
2016-10-23T04:15:07.104Z,26.15
2016-10-23T04:16:07.737Z,26.1
2016-10-23T04:17:07.384Z,26.02
2016-10-23T04:18:07.437Z,26.12
2016-10-23T04:19:07.082Z,26.12
2016-10-23T04:20:07.456Z,26.1
2016-10-23T04:21:07.351Z,26.1
2016-10-23T04:22:07.107Z,26.07
2016-10-23T04:23:07.483Z,26.13
2016-10-23T04:24:07.488Z,26.13
2016-10-23T04:25:07.860Z,26.09
2016-10-23T04:26:07.134Z,26.1
2016-10-23T04:27:07.453Z,26.18
2016-10-23T04:28:07.825Z,26.09
2016-10-23T04:29:07.831Z,26.12
2016-10-23T04:30:07.475Z,26.1
2016-10-23T04:31:07.849Z,26.15
2016-10-23T04:32:07.542Z,26.12
2016-10-23T04:33:07.632Z,26.15
2016-10-23T04:34:07.552Z,26.1
2016-10-23T04:35:07.826Z,26.1
2016-10-23T04:36:07.203Z,26.13
2016-10-23T04:37:07.838Z,26.18
2016-10-23T04:38:07.584Z,26.09
2016-10-23T04:39:07.536Z,26.09
2016-10-23T04:40:07.544Z,26.1
2016-10-23T04:41:07.864Z,26.12
2016-10-23T04:42:07.563Z,26.2
2016-10-23T04:43:07.569Z,26.15
2016-10-23T04:44:07.575Z,26.17
2016-10-23T04:45:07.898Z,26.23
2016-10-23T04:46:07.904Z,26.18
2016-10-23T04:47:07.908Z,26.26
2016-10-23T04:48:07.651Z,26.23
2016-10-23T04:49:07.662Z,26.2
2016-10-23T04:50:07.672Z,26.15
2016-10-23T04:51:07.625Z,26.26
2016-10-23T04:52:07.945Z,26.23
2016-10-23T04:53:07.643Z,26.18
2016-10-23T04:54:08.012Z,26.21
2016-10-23T04:55:07.653Z,26.2
2016-10-23T04:56:07.656Z,26.28
2016-10-23T04:57:07.670Z,26.18
2016-10-23T04:58:07.728Z,26.29
2016-10-23T04:59:07.686Z,26.21
2016-10-23T05:00:08.052Z,26.26
2016-10-23T05:01:08.060Z,26.28
2016-10-23T05:02:07.387Z,26.25
2016-10-23T05:03:07.709Z,26.28
2016-10-23T05:04:08.035Z,26.33
2016-10-23T05:05:08.092Z,26.23
2016-10-23T05:06:07.797Z,26.3
2016-10-23T05:07:08.050Z,26.32
2016-10-23T05:08:07.830Z,26.26
2016-10-23T05:09:07.752Z,26.21
2016-10-23T05:10:08.071Z,26.28
2016-10-23T05:11:07.768Z,26.23
2016-10-23T05:12:07.779Z,26.32
2016-10-23T05:13:08.143Z,26.18
2016-10-23T05:14:07.787Z,26.28
2016-10-23T05:15:08.162Z,26.29
2016-10-23T05:16:07.857Z,26.35
2016-10-23T05:17:08.174Z,26.32
2016-10-23T05:18:08.134Z,26.32
2016-10-23T05:19:08.138Z,26.36
2016-10-23T05:20:08.194Z,26.33
2016-10-23T05:21:08.199Z,26.35
2016-10-23T05:22:07.847Z,26.33
2016-10-23T05:23:07.542Z,26.28
2016-10-23T05:24:08.193Z,26.3
2016-10-23T05:25:07.865Z,26.29
2016-10-23T05:26:07.875Z,26.32
2016-10-23T05:27:07.885Z,26.3
2016-10-23T05:28:07.947Z,26.28
2016-10-23T05:29:22.772Z,26.35
2016-10-23T05:30:07.591Z,26.33
2016-10-23T05:31:07.912Z,26.36
2016-10-23T05:32:08.280Z,26.32
2016-10-23T05:33:07.926Z,26.32
2016-10-23T05:34:08.248Z,26.33
2016-10-23T05:35:08.253Z,26.35
2016-10-23T05:36:07.639Z,26.36
2016-10-23T05:37:07.690Z,26.36
2016-10-23T05:38:09.063Z,26.39
2016-10-23T05:39:08.017Z,26.29
2016-10-23T05:40:08.289Z,26.32
2016-10-23T05:41:08.296Z,26.36
2016-10-23T05:42:07.725Z,26.36
2016-10-23T05:43:08.308Z,26.43
2016-10-23T05:44:08.408Z,26.32
2016-10-23T05:45:08.324Z,26.37
2016-10-23T05:46:08.328Z,26.36
2016-10-23T05:47:08.340Z,26.37
2016-10-23T05:48:08.407Z,26.36
2016-10-23T05:49:08.047Z,26.39
2016-10-23T05:50:07.785Z,26.33
2016-10-23T05:51:08.160Z,26.35
2016-10-23T05:52:08.427Z,26.39
2016-10-23T05:53:07.804Z,26.36
2016-10-23T05:54:08.393Z,26.35
2016-10-23T05:55:08.445Z,26.37
2016-10-23T05:56:08.093Z,26.35
2016-10-23T05:57:08.098Z,26.37
2016-10-23T05:58:08.418Z,26.37
2016-10-23T05:59:08.424Z,26.36
2016-10-23T06:00:08.431Z,26.39
2016-10-23T06:01:07.816Z,26.36
2016-10-23T06:02:08.132Z,26.33
2016-10-23T06:03:08.138Z,26.4
2016-10-23T06:04:08.249Z,26.37
2016-10-23T06:05:08.153Z,26.39
2016-10-23T06:06:07.850Z,26.36
2016-10-23T06:07:07.854Z,26.43
2016-10-23T06:08:08.228Z,26.36
2016-10-23T06:09:08.283Z,26.33
2016-10-23T06:10:08.194Z,26.35
2016-10-23T06:11:08.513Z,26.32
2016-10-23T06:12:08.206Z,26.35
2016-10-23T06:13:08.265Z,26.36
2016-10-23T06:14:08.218Z,26.43
2016-10-23T06:15:08.281Z,26.37
2016-10-23T06:16:08.548Z,26.39
2016-10-23T06:17:08.558Z,26.4
2016-10-23T06:18:08.303Z,26.37
2016-10-23T06:19:08.354Z,26.37
2016-10-23T06:20:07.955Z,26.39
2016-10-23T06:21:08.270Z,26.45
2016-10-23T06:22:08.278Z,26.36
2016-10-23T06:23:08.388Z,26.35
2016-10-23T06:24:08.381Z,26.32
2016-10-23T06:25:08.614Z,26.37
2016-10-23T06:26:08.306Z,26.39
2016-10-23T06:27:08.688Z,26.4
2016-10-23T06:28:08.325Z,26.32
2016-10-23T06:29:08.795Z,26.36
2016-10-23T06:30:08.632Z,26.43
2016-10-23T06:31:08.663Z,26.39
2016-10-23T06:32:08.348Z,26.44
2016-10-23T06:33:08.047Z,26.3
2016-10-23T06:34:08.056Z,26.39
2016-10-23T06:35:08.423Z,26.33
2016-10-23T06:36:08.153Z,26.33
2016-10-23T06:37:08.389Z,26.32
2016-10-23T06:38:08.392Z,26.35
2016-10-23T06:39:08.454Z,26.32
2016-10-23T06:40:08.814Z,26.32
2016-10-23T06:41:08.784Z,26.33
2016-10-23T06:42:08.739Z,26.32
2016-10-23T06:43:08.429Z,26.39
2016-10-23T06:44:08.435Z,26.39
2016-10-23T06:45:08.760Z,26.39
2016-10-23T06:46:08.762Z,26.36
2016-10-23T06:47:08.571Z,26.3
2016-10-23T06:48:08.784Z,26.37
2016-10-23T06:49:08.475Z,26.33
2016-10-23T06:50:08.483Z,26.35
2016-10-23T06:51:08.177Z,26.36
2016-10-23T06:52:08.496Z,26.35
2016-10-23T06:53:08.903Z,26.32
2016-10-23T06:54:08.513Z,26.36
2016-10-23T06:55:08.944Z,26.29
2016-10-23T06:56:08.624Z,26.35
2016-10-23T06:57:08.583Z,26.36
2016-10-23T06:58:08.473Z,26.35
2016-10-23T06:59:08.547Z,26.37
2016-10-23T07:00:08.555Z,26.32
2016-10-23T07:01:08.566Z,26.33
2016-10-23T07:02:08.312Z,26.3
2016-10-23T07:03:08.576Z,26.25
2016-10-23T07:04:08.582Z,26.33
2016-10-23T07:05:08.903Z,26.33
2016-10-23T07:06:08.599Z,26.3
2016-10-23T07:07:08.602Z,26.35
2016-10-23T07:08:08.662Z,26.3
2016-10-23T07:09:08.667Z,26.33
2016-10-23T07:10:08.628Z,26.32
2016-10-23T07:11:09.004Z,26.36
2016-10-23T07:12:08.426Z,26.4
2016-10-23T07:13:08.338Z,26.33
2016-10-23T07:14:08.970Z,26.36
2016-10-23T07:15:08.914Z,26.35
2016-10-23T07:16:08.981Z,26.33
2016-10-23T07:17:08.374Z,26.35
2016-10-23T07:18:09.000Z,26.37
2016-10-23T07:19:08.695Z,26.32
2016-10-23T07:20:09.014Z,26.32
2016-10-23T07:21:08.713Z,26.32
2016-10-23T07:22:08.818Z,26.33
2016-10-23T07:23:08.725Z,26.39
2016-10-23T07:24:08.771Z,26.33
2016-10-23T07:25:08.430Z,26.35
2016-10-23T07:26:09.112Z,26.32
2016-10-23T07:27:08.491Z,26.36
2016-10-23T07:28:09.210Z,26.32
2016-10-23T07:29:08.453Z,26.43
2016-10-23T07:30:08.508Z,26.36
2016-10-23T07:31:08.784Z,26.35
2016-10-23T07:32:09.104Z,26.39
2016-10-23T07:33:09.108Z,26.37
2016-10-23T07:34:08.853Z,26.33
2016-10-23T07:35:09.174Z,26.33
2016-10-23T07:36:09.132Z,26.45
2016-10-23T07:37:08.824Z,26.39
2016-10-23T07:38:08.889Z,26.33
2016-10-23T07:39:08.839Z,26.4
2016-10-23T07:40:08.893Z,26.43
2016-10-23T07:41:08.543Z,26.35
2016-10-23T07:42:08.552Z,26.37
2016-10-23T07:43:08.691Z,26.37
2016-10-23T07:44:08.619Z,26.45
2016-10-23T07:45:09.196Z,26.28
2016-10-23T07:46:08.943Z,26.43
2016-10-23T07:47:09.212Z,26.39
2016-10-23T07:48:08.904Z,26.43
2016-10-23T07:49:08.598Z,26.4
2016-10-23T07:50:09.231Z,26.48
2016-10-23T07:51:09.290Z,26.39
2016-10-23T07:52:09.297Z,26.5
2016-10-23T07:53:08.993Z,26.54
2016-10-23T07:54:08.679Z,26.45
2016-10-23T07:55:09.566Z,26.39
2016-10-23T07:56:09.280Z,26.48
2016-10-23T07:57:09.019Z,26.47
2016-10-23T07:58:09.029Z,26.52
2016-10-23T07:59:09.040Z,26.51
2016-10-23T08:00:08.780Z,26.54
2016-10-23T08:01:09.001Z,26.52
2016-10-23T08:02:09.059Z,26.57
2016-10-23T08:03:09.066Z,26.55
2016-10-23T08:04:08.759Z,26.51
2016-10-23T08:05:09.328Z,26.4
2016-10-23T08:06:09.040Z,26.33
2016-10-23T08:07:08.788Z,26.4
2016-10-23T08:08:09.056Z,26.51
2016-10-23T08:09:09.062Z,26.52
2016-10-23T08:10:09.123Z,26.57
2016-10-23T08:11:08.821Z,26.48
2016-10-23T08:12:09.445Z,26.51
2016-10-23T08:13:08.787Z,26.48
2016-10-23T08:14:09.096Z,26.55
2016-10-23T08:15:09.520Z,26.47
2016-10-23T08:16:09.481Z,26.45
2016-10-23T08:17:09.540Z,26.45
2016-10-23T08:18:09.495Z,26.4
2016-10-23T08:19:09.449Z,26.33
2016-10-23T08:20:09.143Z,26.33
2016-10-23T08:21:09.190Z,26.4
2016-10-23T08:22:09.167Z,26.37
2016-10-23T08:23:09.681Z,26.33
2016-10-23T08:24:08.962Z,26.35
2016-10-23T08:25:09.556Z,26.3
2016-10-23T08:26:09.793Z,26.25
2016-10-23T08:27:09.201Z,26.29
2016-10-23T08:28:09.254Z,26.28
2016-10-23T08:29:08.903Z,26.17
2016-10-23T08:30:09.322Z,26.13
2016-10-23T08:31:09.230Z,26.07
2016-10-23T08:32:09.548Z,25.98
2016-10-23T08:33:09.254Z,26.07
2016-10-23T08:34:09.567Z,26.07
2016-10-23T08:35:08.953Z,25.99
2016-10-23T08:36:09.577Z,26.05
2016-10-23T08:37:09.353Z,26.02
2016-10-23T08:38:09.287Z,25.98
2016-10-23T08:39:09.296Z,26.01
2016-10-23T08:40:09.611Z,25.97
2016-10-23T08:41:09.624Z,26.06
2016-10-23T08:42:09.439Z,25.99
2016-10-23T08:43:09.324Z,25.99
2016-10-23T08:44:09.639Z,25.97
2016-10-23T08:45:09.023Z,26.01
2016-10-23T08:46:09.391Z,25.98
2016-10-23T08:47:09.086Z,26.09
2016-10-23T08:48:09.667Z,26.02
2016-10-23T08:49:09.372Z,26.01
2016-10-23T08:50:09.427Z,26.01
2016-10-23T08:51:09.695Z,26.06
2016-10-23T08:52:09.388Z,25.99
2016-10-23T08:53:09.133Z,26.06
2016-10-23T08:54:09.494Z,26.01
2016-10-23T08:55:09.095Z,26.13
2016-10-23T08:56:09.727Z,26.21
2016-10-23T08:57:09.420Z,26.35
2016-10-23T08:58:09.806Z,26.29
2016-10-23T08:59:09.490Z,26.33
2016-10-23T09:00:09.494Z,26.44
2016-10-23T09:01:09.819Z,26.26
2016-10-23T09:02:09.461Z,26.25
2016-10-23T09:03:09.567Z,26.07
2016-10-23T09:04:09.475Z,26.18
2016-10-23T09:05:09.798Z,26.25
2016-10-23T09:06:09.178Z,26.3
2016-10-23T09:07:09.511Z,26.28
2016-10-23T09:08:09.555Z,26.32
2016-10-23T09:09:09.566Z,26.39
2016-10-23T09:10:09.617Z,26.37
2016-10-23T09:11:09.216Z,26.35
2016-10-23T09:12:09.536Z,26.18
2016-10-23T09:13:09.548Z,26.12
2016-10-23T09:14:09.914Z,26.15
2016-10-23T09:15:09.609Z,26.2
2016-10-23T09:16:09.564Z,26.23
2016-10-23T09:17:09.579Z,26.2
2016-10-23T09:18:09.896Z,26.18
2016-10-23T09:19:09.840Z,26.2
2016-10-23T09:20:09.649Z,26.25
2016-10-23T09:21:09.986Z,26.3
2016-10-23T09:22:09.665Z,26.2
2016-10-23T09:23:09.932Z,26.17
2016-10-23T09:24:09.313Z,26.1
2016-10-23T09:25:09.637Z,25.98
2016-10-23T09:26:09.330Z,25.97
2016-10-23T09:27:09.340Z,25.95
2016-10-23T09:28:09.659Z,25.99
2016-10-23T09:29:09.680Z,26.01
2016-10-23T09:30:09.724Z,25.99
2016-10-23T09:31:09.733Z,25.94
2016-10-23T09:32:09.543Z,25.99
2016-10-23T09:33:09.763Z,26.12
2016-10-23T09:34:10.103Z,26.13
2016-10-23T09:35:09.764Z,26.09
2016-10-23T09:36:09.794Z,26.06
2016-10-23T09:37:09.526Z,25.97
2016-10-23T09:38:10.046Z,25.87
2016-10-23T09:39:09.799Z,25.9
2016-10-23T09:40:09.772Z,25.83
2016-10-23T09:41:10.071Z,25.79
2016-10-23T09:42:10.102Z,25.83
2016-10-23T09:43:09.770Z,25.72
2016-10-23T09:44:09.809Z,25.8
2016-10-23T09:45:09.803Z,25.69
2016-10-23T09:46:10.087Z,25.72
2016-10-23T09:47:09.956Z,25.76
2016-10-23T09:48:09.814Z,25.73
2016-10-23T09:49:10.271Z,25.69
2016-10-23T09:50:10.357Z,25.77
2016-10-23T09:51:09.915Z,25.76
2016-10-23T09:52:09.530Z,25.67
2016-10-23T09:53:10.249Z,25.58
2016-10-23T09:54:09.859Z,25.64
2016-10-23T09:55:09.550Z,25.72
2016-10-23T09:56:09.925Z,25.72
2016-10-23T09:57:10.177Z,25.69
2016-10-23T09:58:10.243Z,25.65
2016-10-23T09:59:09.586Z,25.73
2016-10-23T10:00:09.903Z,25.67
2016-10-23T10:01:10.308Z,25.72
2016-10-23T10:02:10.038Z,25.62
2016-10-23T10:03:10.282Z,25.61
2016-10-23T10:04:11.007Z,25.64
2016-10-23T10:05:10.252Z,25.69
2016-10-23T10:06:09.647Z,25.6
2016-10-23T10:07:10.138Z,25.67
2016-10-23T10:08:10.410Z,25.75
2016-10-23T10:09:10.107Z,25.72
2016-10-23T10:10:10.688Z,25.72
2016-10-23T10:11:10.309Z,25.72
2016-10-23T10:12:10.317Z,25.64
2016-10-23T10:13:09.680Z,25.67
2016-10-23T10:14:10.003Z,25.72
2016-10-23T10:15:10.009Z,25.64
2016-10-23T10:16:10.381Z,25.69
2016-10-23T10:17:10.343Z,25.67
2016-10-23T10:18:10.068Z,25.61
2016-10-23T10:19:09.729Z,25.67
2016-10-23T10:20:09.783Z,25.65
2016-10-23T10:21:10.372Z,25.57
2016-10-23T10:22:10.427Z,25.62
2016-10-23T10:23:10.120Z,25.64
2016-10-23T10:24:10.084Z,25.58
2016-10-23T10:25:10.089Z,25.57
2016-10-23T10:26:09.836Z,25.54
2016-10-23T10:27:10.464Z,25.54
2016-10-23T10:28:10.422Z,25.51
2016-10-23T10:29:09.850Z,25.5
2016-10-23T10:30:10.421Z,25.54
2016-10-23T10:31:10.127Z,25.55
2016-10-23T10:32:10.505Z,25.52
2016-10-23T10:33:10.250Z,25.55
2016-10-23T10:34:10.531Z,25.52
2016-10-23T10:35:09.855Z,25.51
2016-10-23T10:36:10.529Z,25.47
2016-10-23T10:37:10.171Z,25.55
2016-10-23T10:38:10.181Z,25.5
2016-10-23T10:39:10.188Z,25.51
2016-10-23T10:40:10.195Z,25.43
2016-10-23T10:41:09.894Z,25.36
2016-10-23T10:42:10.575Z,25.28
2016-10-23T10:43:09.911Z,25.21
2016-10-23T10:44:09.914Z,25.24
2016-10-23T10:45:10.556Z,25.28
2016-10-23T10:46:10.556Z,25.33
2016-10-23T10:47:10.247Z,25.27
2016-10-23T10:48:10.294Z,25.15
2016-10-23T10:49:10.274Z,25.13
2016-10-23T10:50:10.271Z,25.13
2016-10-23T10:51:10.343Z,25.1
2016-10-23T10:52:10.333Z,25.03
2016-10-23T10:53:10.338Z,25.03
2016-10-23T10:54:10.013Z,25.03
2016-10-23T10:55:09.998Z,25.05
2016-10-23T10:56:10.419Z,25.03
2016-10-23T10:57:10.635Z,24.96
2016-10-23T10:58:10.378Z,24.99
2016-10-23T10:59:10.649Z,25
2016-10-23T11:00:10.339Z,24.99
2016-10-23T11:01:10.351Z,24.95
2016-10-23T11:02:10.042Z,24.96
2016-10-23T11:03:10.365Z,24.91
2016-10-23T11:04:10.059Z,24.91
2016-10-23T11:05:10.069Z,24.85
2016-10-23T11:06:10.789Z,24.85
2016-10-23T11:07:10.763Z,24.95
2016-10-23T11:08:10.140Z,24.99
2016-10-23T11:09:10.777Z,24.8
2016-10-23T11:10:10.733Z,24.96
2016-10-23T11:11:10.460Z,24.88
2016-10-23T11:12:10.431Z,24.85
2016-10-23T11:13:10.754Z,24.85
2016-10-23T11:14:10.760Z,24.83
2016-10-23T11:15:10.194Z,24.83
2016-10-23T11:16:10.774Z,24.88
2016-10-23T11:17:10.153Z,24.83
2016-10-23T11:18:10.479Z,24.87
2016-10-23T11:19:10.170Z,24.84
2016-10-23T11:20:10.542Z,24.91
2016-10-23T11:21:10.496Z,24.84
2016-10-23T11:22:10.505Z,24.84
2016-10-23T11:23:10.577Z,24.88
2016-10-23T11:24:10.568Z,24.88
2016-10-23T11:25:10.266Z,24.91
2016-10-23T11:26:10.910Z,24.9
2016-10-23T11:27:10.228Z,24.98
2016-10-23T11:28:10.599Z,24.84
2016-10-23T11:29:10.559Z,24.85
2016-10-23T11:30:10.599Z,24.85
2016-10-23T11:31:10.303Z,24.84
2016-10-23T11:32:10.629Z,24.83
2016-10-23T11:33:10.272Z,24.83
2016-10-23T11:34:10.918Z,24.87
2016-10-23T11:35:10.947Z,24.9
2016-10-23T11:36:10.654Z,24.81
2016-10-23T11:37:10.658Z,24.71
2016-10-23T11:38:10.935Z,24.85
2016-10-23T11:39:10.314Z,24.76
2016-10-23T11:40:11.035Z,24.81
2016-10-23T11:41:10.960Z,24.91
2016-10-23T11:42:10.646Z,24.95
2016-10-23T11:43:10.968Z,24.9
2016-10-23T11:44:10.661Z,24.85
2016-10-23T11:45:10.983Z,25.02
2016-10-23T11:46:10.782Z,25.02
2016-10-23T11:47:10.684Z,25.06
2016-10-23T11:48:10.376Z,24.98
2016-10-23T11:49:11.009Z,25.09
2016-10-23T11:50:10.445Z,25.1
2016-10-23T11:51:11.073Z,25.02
2016-10-23T11:52:10.773Z,24.98
2016-10-23T11:53:10.736Z,25
2016-10-23T11:54:11.104Z,24.99
2016-10-23T11:55:10.426Z,24.99
2016-10-23T11:56:11.060Z,24.96
2016-10-23T11:57:11.122Z,25
2016-10-23T11:58:10.816Z,24.91
2016-10-23T11:59:10.459Z,24.95
2016-10-23T12:00:10.467Z,24.99
2016-10-23T12:01:10.783Z,25
2016-10-23T12:02:10.806Z,25.05
2016-10-23T12:03:11.161Z,24.96
2016-10-23T12:04:11.118Z,24.99
2016-10-23T12:05:11.278Z,24.98
2016-10-23T12:06:10.921Z,24.96
2016-10-23T12:07:10.834Z,24.85
2016-10-23T12:08:10.837Z,24.85
2016-10-23T12:09:11.195Z,24.77
2016-10-23T12:10:10.852Z,24.77
2016-10-23T12:11:11.180Z,24.71
2016-10-23T12:12:10.964Z,24.68
2016-10-23T12:13:10.907Z,24.71
2016-10-23T12:14:10.917Z,24.77
2016-10-23T12:15:10.887Z,24.76
2016-10-23T12:16:11.205Z,24.67
2016-10-23T12:17:11.212Z,24.76
2016-10-23T12:18:10.940Z,24.65
2016-10-23T12:19:10.916Z,24.61
2016-10-23T12:20:10.645Z,24.62
2016-10-23T12:21:11.308Z,24.67
2016-10-23T12:22:10.938Z,24.65
2016-10-23T12:23:11.259Z,24.62
2016-10-23T12:24:11.005Z,24.77
2016-10-23T12:25:11.324Z,24.71
2016-10-23T12:26:10.665Z,24.76
2016-10-23T12:27:11.336Z,24.71
2016-10-23T12:28:11.293Z,24.71
2016-10-23T12:29:11.356Z,24.85
2016-10-23T12:30:10.998Z,24.73
2016-10-23T12:31:10.690Z,24.73
2016-10-23T12:32:11.024Z,24.69
2016-10-23T12:33:11.329Z,24.73
2016-10-23T12:34:11.022Z,24.65
2016-10-23T12:35:11.116Z,24.69
2016-10-23T12:36:11.088Z,24.69
2016-10-23T12:37:10.738Z,24.69
2016-10-23T12:38:11.057Z,24.69
2016-10-23T12:39:11.371Z,24.73
2016-10-23T12:40:10.758Z,24.71
2016-10-23T12:41:11.224Z,24.73
2016-10-23T12:42:11.449Z,24.77
2016-10-23T12:43:11.087Z,24.68
2016-10-23T12:44:11.096Z,24.67
2016-10-23T12:45:11.251Z,24.67
2016-10-23T12:46:11.158Z,24.69
2016-10-23T12:47:11.168Z,24.67
2016-10-23T12:48:11.486Z,24.65
2016-10-23T12:49:11.450Z,24.64
2016-10-23T12:50:11.139Z,24.6
2016-10-23T12:51:11.248Z,24.57
2016-10-23T12:52:11.464Z,24.55
2016-10-23T12:53:11.199Z,24.57
2016-10-23T12:54:11.171Z,24.57
2016-10-23T12:55:11.175Z,24.65